Main page
METAR-TAF:

METAR-TAF

Airports :

Pointe Vele Airport

Futuna, France

latitude: 14-19S, longitude: 178-07W, elevation: 6 m

METAR: missing

Time: 13:38 (01:38 UTC)

Forecast

The report was made 2 hours and 38 minutes ago, at 23:00 UTC
Forecast valid from 07 at 00 UTC to 07 at 24 UTC
Wind 6 kt from the Northwest
Visibility 10 km or more
Scattered clouds at a height of 2000 ft
Broken clouds at a height of 18000 ft
Temporary
from 07 at 10 UTC to 07 at 18 UTC
Few clouds at a height of 2000 ft, Towering cumulus.
rain showers
Temporary
from 07 at 18 UTC to 07 at 24 UTC
Visibility: 3000 m
Broken clouds at a height of 1400 ft
Scattered clouds at a height of 1800 ft, Cumulonimbus.
rain showers

TAF: NLWF 062300Z 0700/0724 31006KT 9999 SCT020 BKN180 TEMPO 0710/0718 SHRA FEW020TCU TEMPO 0718/0724 3000 SHRA BKN014 SCT018CB

Weather observations and forecasts of more than 4000 airports (METAR and TAF reports).

The available stations are represented by yellow and red dots on the map.

Hover mouse over dot to see the name of the station.

Then click to see weather observations and forecasts.

To change the map : click on the green buttons with a black cross to zoom in, on the green button with a dash to zoom out, or on the green arrows for adjacent maps.


METAR-TAF: